EDT,Max TemperatureF,Mean TemperatureF,Min TemperatureF,Max Dew PointF,MeanDew PointF,Min DewpointF,Max Humidity, Mean Humidity, Min Humidity, Max Sea Level PressureIn, Mean Sea Level PressureIn, Min Sea Level PressureIn, Max VisibilityMiles, Mean VisibilityMiles, Min VisibilityMiles, Max Wind SpeedMPH, Mean Wind SpeedMPH, Max Gust SpeedMPH,PrecipitationIn, CloudCover, Events, WindDirDegrees
2011-9-1,75,66,57,57,53,50,77,66,50,30.25,30.17,30.08,,,,13,6,,0.00,5,,48
2011-9-2,80,71,62,66,61,54,83,70,57,30.08,29.99,29.85,20,14,8,8,5,,0.00,5,Rain,122
2011-9-3,84,78,69,68,63,59,78,65,48,29.87,29.84,29.80,20,12,4,10,7,,0.00,5,Rain,256
2011-9-4,80,70,60,66,61,55,88,78,61,29.86,29.76,29.67,15,6,1,20,6,25,0.00,8,Rain-Thunderstorm,57
2011-9-5,68,64,59,68,59,52,100,82,68,29.94,29.80,29.71,20,8,2,9,3,,0.00,8,Fog-Rain-Thunderstorm,11
2011-9-6,66,60,55,54,49,46,88,68,49,30.27,30.12,29.96,20,16,10,8,5,,0.00,6,Rain,22
2011-9-7,62,58,53,59,53,46,100,79,72,30.28,30.23,30.14,15,12,6,14,5,,0.00,8,Rain,50
2011-9-8,73,65,57,59,55,54,100,76,53,30.17,30.10,30.01,20,16,15,7,4,,0.00,6,,66
2011-9-9,78,66,55,59,54,50,88,68,47,30.00,29.89,29.80,,,,10,5,,0.00,5,,268
2011-9-10,68,60,51,48,44,41,76,58,37,30.10,30.03,29.91,,,,8,2,,0.00,1,,37
2011-9-11,69,56,44,52,46,39,82,67,46,30.11,30.03,29.90,,,,13,3,,0.00,2,Fog,207
2011-9-12,77,67,57,63,57,50,83,75,61,29.93,29.89,29.86,20,15,10,16,7,17,0.00,6,Rain-Thunderstorm,238
2011-9-13,75,67,59,64,60,54,88,80,65,29.88,29.73,29.61,20,12,0,16,6,26,0.00,6,Fog-Rain-Thunderstorm,235
2011-9-14,66,58,51,55,48,43,88,69,52,29.96,29.91,29.78,20,20,20,13,5,,0.00,5,,252
2011-9-15,59,54,46,50,44,34,87,70,48,30.08,29.99,29.92,15,13,8,9,4,,0.00,6,Rain,257
2011-9-16,55,48,41,39,35,32,81,64,44,30.35,30.22,30.08,,,,15,6,24,0.00,2,Rain,265
2011-9-17,62,50,39,43,38,34,87,65,42,30.49,30.44,30.37,,,,8,5,,0.00,1,,236
2011-9-18,64,53,42,43,39,36,76,60,37,30.56,30.48,30.40,,,,9,2,,0.00,1,Fog,50
2011-9-19,66,54,42,46,43,37,81,64,43,30.39,30.22,30.00,20,20,20,9,5,,0.00,3,Rain,81
2011-9-20,69,61,51,57,51,46,88,77,52,30.12,30.00,29.93,15,5,2,9,5,,0.00,6,Fog-Rain,219
2011-9-21,71,58,46,55,50,43,88,76,50,30.23,30.16,30.09,20,5,0,9,3,,0.00,4,Fog,211
2011-9-22,73,66,59,64,59,52,100,80,73,30.08,30.05,30.01,20,10,0,7,4,,0.00,6,Fog-Rain,156
2011-9-23,73,62,51,61,54,48,100,73,46,30.18,30.12,30.05,15,12,3,6,4,,0.00,5,Fog-Rain,18
2011-9-24,75,70,64,63,59,57,83,73,61,30.10,30.04,30.00,20,14,4,9,5,,0.00,6,Rain,53
2011-9-25,77,68,57,61,59,54,88,77,57,30.15,30.09,30.04,10,8,5,12,6,,0.00,5,,244
2011-9-26,77,64,50,59,52,46,94,72,36,30.06,30.03,29.97,,,,6,2,,0.00,2,,296
2011-9-27,75,64,53,59,54,50,88,71,47,30.05,30.02,29.98,20,20,20,14,5,,0.00,3,,58
2011-9-28,71,63,55,64,55,46,88,77,72,30.02,29.97,29.90,20,17,5,12,6,,0.00,6,Rain,59
2011-9-29,66,63,60,63,61,59,100,92,83,29.88,29.67,29.46,20,8,2,8,6,,0.00,8,Rain,110
2011-9-30,68,62,55,57,54,48,100,83,56,29.75,29.58,29.46,20,15,6,17,8,23,0.00,7,Rain,225